Time;durP1;ratioP1;P1;durP2;ratioP2;P2;SDS_P1;SDS_P2;PMS_P1;PMS_P2;Temp;Humidity;BMP_temperature;BMP_pressure;BME280_temperature;BME280_humidity;BME280_pressure;Samples;Min_cycle;Max_cycle;Signal;HPM_P1;HPM_P2
2022/05/12 00:00:57;;;;;;;4.50;3.42;;;;;;;;;;5022111;28;20030;-83
2022/05/12 00:03:24;;;;;;;5.13;3.55;;;;;;;;;;5021691;28;20037;-84
2022/05/12 00:05:49;;;;;;;4.50;3.17;;;;;;;;;;5009795;28;20029;-82
2022/05/12 00:08:17;;;;;;;4.65;3.55;;;;;;;;;;5021869;28;20075;-85
2022/05/12 00:10:42;;;;;;;5.05;3.72;;;;;;;;;;5025825;28;20470;-85
2022/05/12 00:13:08;;;;;;;5.35;3.42;;;;;;;;;;5004374;28;20042;-84
2022/05/12 00:15:35;;;;;;;3.45;2.90;;;;;;;;;;5003078;28;20390;-84
2022/05/12 00:18:04;;;;;;;4.25;3.15;;;;;;;;;;5004037;28;20017;-88
2022/05/12 00:20:31;;;;;;;4.82;3.65;;;;;;;;;;5020237;28;20504;-86
2022/05/12 00:23:25;;;;;;;6.32;2.90;;;;;;;;;;5020390;28;20051;-86
2022/05/12 00:25:51;;;;;;;4.00;3.40;;;;;;;;;;4997252;28;20581;-86
2022/05/12 00:28:20;;;;;;;4.78;3.35;;;;;;;;;;5023600;28;20060;-79
2022/05/12 00:30:47;;;;;;;5.03;3.72;;;;;;;;;;5020531;28;20541;-83
2022/05/12 00:33:14;;;;;;;5.78;3.85;;;;;;;;;;5025197;28;20029;-81
2022/05/12 00:35:41;;;;;;;4.82;3.35;;;;;;;;;;5020376;28;20040;-82
2022/05/12 00:38:07;;;;;;;4.35;3.08;;;;;;;;;;5001764;28;20025;-88
2022/05/12 00:40:32;;;;;;;4.35;3.40;;;;;;;;;;5023101;28;20037;-86
2022/05/12 00:43:28;;;;;;;6.85;3.95;;;;;;;;;;5022238;28;20025;-86
2022/05/12 00:45:54;;;;;;;4.93;3.40;;;;;;;;;;5001806;28;20028;-86
2022/05/12 00:48:19;;;;;;;4.63;3.45;;;;;;;;;;5021924;28;20109;-85
2022/05/12 00:50:45;;;;;;;7.55;4.13;;;;;;;;;;5024608;28;20442;-87
2022/05/12 00:53:12;;;;;;;4.82;3.53;;;;;;;;;;5022961;28;20033;-85
2022/05/12 00:55:41;;;;;;;4.72;4.10;;;;;;;;;;5008236;28;20036;-89
2022/05/12 00:58:09;;;;;;;5.70;4.15;;;;;;;;;;5024218;28;20104;-86
2022/05/12 01:00:36;;;;;;;6.57;4.03;;;;;;;;;;5006359;28;20087;-87
2022/05/12 01:03:06;;;;;;;4.93;3.65;;;;;;;;;;5006009;28;20025;-85
2022/05/12 01:05:32;;;;;;;10.20;3.90;;;;;;;;;;5005781;28;20021;-86
2022/05/12 01:07:58;;;;;;;5.95;3.90;;;;;;;;;;5006493;28;20034;-86
2022/05/12 01:10:25;;;;;;;5.15;3.72;;;;;;;;;;5026140;28;20065;-88
2022/05/12 01:12:51;;;;;;;5.63;4.25;;;;;;;;;;5007466;28;20477;-85
2022/05/12 01:15:20;;;;;;;5.38;4.18;;;;;;;;;;5023707;28;20017;-84
2022/05/12 01:17:45;;;;;;;5.25;4.15;;;;;;;;;;5006188;28;20040;-85
2022/05/12 01:20:13;;;;;;;6.18;3.92;;;;;;;;;;5007484;28;20033;-85
2022/05/12 01:22:53;;;;;;;5.65;3.90;;;;;;;;;;5029382;28;20025;-86
2022/05/12 01:25:23;;;;;;;6.00;4.00;;;;;;;;;;5023358;28;20044;-86
2022/05/12 01:27:49;;;;;;;5.13;4.10;;;;;;;;;;5006938;28;20025;-83
2022/05/12 01:30:17;;;;;;;7.25;4.18;;;;;;;;;;5002982;28;20026;-87
2022/05/12 01:32:49;;;;;;;6.53;4.30;;;;;;;;;;5022308;28;20105;-85
2022/05/12 01:35:18;;;;;;;5.68;4.07;;;;;;;;;;5010452;28;20037;-86
2022/05/12 01:37:45;;;;;;;7.55;5.03;;;;;;;;;;5010696;28;20046;-84
2022/05/12 01:40:14;;;;;;;6.03;4.03;;;;;;;;;;5006743;28;20025;-87
2022/05/12 01:42:40;;;;;;;5.18;3.70;;;;;;;;;;5020198;28;20037;-85
2022/05/12 01:45:07;;;;;;;4.72;4.00;;;;;;;;;;5033996;28;20056;-84
2022/05/12 01:47:34;;;;;;;5.55;3.60;;;;;;;;;;5027045;28;20389;-85
2022/05/12 01:50:00;;;;;;;7.70;4.30;;;;;;;;;;5028708;28;20031;-84
2022/05/12 01:52:26;;;;;;;4.65;3.75;;;;;;;;;;5007084;28;21113;-83
2022/05/12 01:54:52;;;;;;;4.57;3.65;;;;;;;;;;5003838;28;20037;-85
2022/05/12 01:57:18;;;;;;;5.07;3.63;;;;;;;;;;5003309;28;20488;-84
2022/05/12 01:59:44;;;;;;;5.85;4.00;;;;;;;;;;5023907;28;20116;-84
2022/05/12 02:02:09;;;;;;;5.68;3.80;;;;;;;;;;5005043;28;20045;-85
2022/05/12 02:04:34;;;;;;;6.70;4.55;;;;;;;;;;5022770;28;20104;-83
2022/05/12 02:07:00;;;;;;;5.88;4.20;;;;;;;;;;5028439;28;20034;-88
2022/05/12 02:09:25;;;;;;;4.10;3.40;;;;;;;;;;5002365;28;20022;-86
2022/05/12 02:11:51;;;;;;;5.95;4.35;;;;;;;;;;5022433;28;20492;-86
2022/05/12 02:14:16;;;;;;;4.22;3.60;;;;;;;;;;5009564;28;20017;-87
2022/05/12 02:16:42;;;;;;;6.22;4.38;;;;;;;;;;5019978;28;20030;-84
2022/05/12 02:19:09;;;;;;;6.60;4.03;;;;;;;;;;5010755;28;20033;-87
2022/05/12 02:21:38;;;;;;;6.05;4.18;;;;;;;;;;5008061;28;20039;-86
2022/05/12 02:24:05;;;;;;;4.40;3.72;;;;;;;;;;5027446;28;20026;-84
2022/05/12 02:26:30;;;;;;;4.63;3.35;;;;;;;;;;5020609;28;20109;-87
2022/05/12 02:28:56;;;;;;;5.65;4.00;;;;;;;;;;5020823;28;20529;-85
2022/05/12 02:31:22;;;;;;;6.35;4.07;;;;;;;;;;5021166;28;20068;-83
2022/05/12 02:33:48;;;;;;;5.18;3.95;;;;;;;;;;5010069;28;20061;-85
2022/05/12 02:36:13;;;;;;;7.60;3.92;;;;;;;;;;5012713;28;20033;-84
2022/05/12 02:38:39;;;;;;;5.60;3.72;;;;;;;;;;5024117;28;20036;-86
2022/05/12 02:41:05;;;;;;;6.30;4.60;;;;;;;;;;5025061;28;20030;-84
2022/05/12 02:43:31;;;;;;;5.00;4.20;;;;;;;;;;5006402;28;20052;-85
2022/05/12 02:46:03;;;;;;;6.38;4.35;;;;;;;;;;5027823;28;20029;-84
2022/05/12 02:48:34;;;;;;;5.40;3.78;;;;;;;;;;5025648;28;20029;-84
2022/05/12 02:51:00;;;;;;;5.05;3.95;;;;;;;;;;5007065;28;20037;-84
2022/05/12 02:53:27;;;;;;;5.88;4.00;;;;;;;;;;5028990;28;20128;-87
2022/05/12 02:55:53;;;;;;;5.40;3.88;;;;;;;;;;5008298;28;20080;-85
2022/05/12 02:58:19;;;;;;;7.60;4.47;;;;;;;;;;5019395;28;20140;-86
2022/05/12 03:00:46;;;;;;;5.53;4.07;;;;;;;;;;5002539;28;20108;-85
2022/05/12 03:03:12;;;;;;;7.55;4.00;;;;;;;;;;5020748;28;20062;-86
2022/05/12 03:05:37;;;;;;;7.88;4.32;;;;;;;;;;5004211;28;20021;-86
2022/05/12 03:08:04;;;;;;;6.80;4.28;;;;;;;;;;5002622;28;20017;-88
2022/05/12 03:10:31;;;;;;;7.72;4.35;;;;;;;;;;5001319;28;20049;-87
2022/05/12 03:12:57;;;;;;;5.90;3.95;;;;;;;;;;5011445;28;20021;-86
2022/05/12 03:15:23;;;;;;;6.38;4.28;;;;;;;;;;5026914;28;20040;-86
2022/05/12 03:17:49;;;;;;;4.85;3.95;;;;;;;;;;5010042;28;20163;-85
2022/05/12 03:20:19;;;;;;;7.47;3.78;;;;;;;;;;5007687;28;20053;-86
2022/05/12 03:22:45;;;;;;;4.88;3.58;;;;;;;;;;5024860;28;20033;-86
2022/05/12 03:25:13;;;;;;;6.53;4.60;;;;;;;;;;5007362;28;20022;-86
2022/05/12 03:27:40;;;;;;;5.38;4.10;;;;;;;;;;5003646;28;20567;-83
2022/05/12 03:30:10;;;;;;;7.25;5.13;;;;;;;;;;5020785;28;20025;-86
2022/05/12 03:32:36;;;;;;;6.38;3.80;;;;;;;;;;5026384;28;20030;-84
2022/05/12 03:35:02;;;;;;;8.35;4.40;;;;;;;;;;5026879;28;20044;-88
2022/05/12 03:37:28;;;;;;;6.07;4.18;;;;;;;;;;5001954;28;20032;-85
2022/05/12 03:39:53;;;;;;;5.70;3.72;;;;;;;;;;5004280;28;20133;-86
2022/05/12 03:42:19;;;;;;;4.05;3.65;;;;;;;;;;5020546;28;20418;-87
2022/05/12 03:44:54;;;;;;;5.95;4.05;;;;;;;;;;5007069;28;20466;-86
2022/05/12 03:47:29;;;;;;;5.18;3.92;;;;;;;;;;5018449;28;20074;-86
2022/05/12 03:49:59;;;;;;;5.85;4.38;;;;;;;;;;5007065;28;20112;-87
2022/05/12 03:52:25;;;;;;;8.02;4.63;;;;;;;;;;5013372;28;20485;-85
2022/05/12 03:54:51;;;;;;;7.07;4.38;;;;;;;;;;5022910;28;20095;-86
2022/05/12 03:57:17;;;;;;;6.28;4.70;;;;;;;;;;5022915;28;20136;-85
2022/05/12 03:59:43;;;;;;;7.20;4.68;;;;;;;;;;5020197;28;20041;-85
2022/05/12 04:02:10;;;;;;;7.05;4.60;;;;;;;;;;5024883;28;20478;-84
2022/05/12 04:04:36;;;;;;;7.85;5.05;;;;;;;;;;5007631;28;20482;-84
2022/05/12 04:07:03;;;;;;;6.22;5.32;;;;;;;;;;5003904;28;20036;-85
2022/05/12 04:09:29;;;;;;;7.03;4.72;;;;;;;;;;5006309;28;20474;-86
2022/05/12 04:11:55;;;;;;;7.80;5.25;;;;;;;;;;5020702;28;20053;-84
2022/05/12 04:14:21;;;;;;;7.05;5.43;;;;;;;;;;5020940;28;20029;-84
2022/05/12 04:16:47;;;;;;;5.22;4.10;;;;;;;;;;5004235;28;20367;-86
2022/05/12 04:19:13;;;;;;;5.72;4.85;;;;;;;;;;5020794;28;20061;-86
2022/05/12 04:21:39;;;;;;;6.18;4.70;;;;;;;;;;5005337;28;20444;-86
2022/05/12 04:24:06;;;;;;;8.23;6.13;;;;;;;;;;5023885;28;20104;-88
2022/05/12 04:26:40;;;;;;;8.35;5.40;;;;;;;;;;5009426;28;20026;-87
2022/05/12 04:29:07;;;;;;;5.85;4.57;;;;;;;;;;5026809;28;20483;-85
2022/05/12 04:31:32;;;;;;;12.25;5.80;;;;;;;;;;5006474;28;20030;-85
2022/05/12 04:36:42;;;;;;;8.95;6.28;;;;;;;;;;5021525;28;20100;-87
2022/05/12 04:39:08;;;;;;;10.30;7.20;;;;;;;;;;5010017;28;20026;-84
2022/05/12 04:41:35;;;;;;;13.27;7.72;;;;;;;;;;5021499;28;20029;-86
2022/05/12 04:44:01;;;;;;;10.88;7.85;;;;;;;;;;5025515;28;20072;-85
2022/05/12 04:46:28;;;;;;;13.05;7.80;;;;;;;;;;5030707;28;20066;-85
2022/05/12 04:48:54;;;;;;;9.88;6.82;;;;;;;;;;5013405;28;20037;-86
2022/05/12 04:51:21;;;;;;;10.43;6.63;;;;;;;;;;5024772;28;20030;-85
2022/05/12 04:53:47;;;;;;;10.63;7.40;;;;;;;;;;5025601;28;20028;-85
2022/05/12 04:56:13;;;;;;;16.52;10.43;;;;;;;;;;5026539;28;20021;-84
2022/05/12 04:58:39;;;;;;;17.23;10.73;;;;;;;;;;5027837;28;20072;-86
2022/05/12 05:01:05;;;;;;;14.13;8.93;;;;;;;;;;5022874;28;20030;-86
2022/05/12 05:03:32;;;;;;;12.10;8.02;;;;;;;;;;5005560;28;20021;-86
2022/05/12 05:05:58;;;;;;;13.90;8.52;;;;;;;;;;5010503;28;20036;-88
2022/05/12 05:08:24;;;;;;;15.05;9.13;;;;;;;;;;5027943;28;20075;-87
2022/05/12 05:10:51;;;;;;;12.32;8.80;;;;;;;;;;5011645;28;20116;-87
2022/05/12 05:13:19;;;;;;;15.10;10.10;;;;;;;;;;5024786;28;20022;-88
2022/05/12 05:15:50;;;;;;;13.05;9.05;;;;;;;;;;5010223;28;20493;-88
2022/05/12 05:18:17;;;;;;;14.85;9.23;;;;;;;;;;5005891;28;20028;-87
2022/05/12 05:20:44;;;;;;;12.65;9.48;;;;;;;;;;5007081;28;20026;-88
2022/05/12 05:23:15;;;;;;;13.75;10.07;;;;;;;;;;5020664;28;20025;-89
2022/05/12 05:25:41;;;;;;;14.23;9.45;;;;;;;;;;5003838;28;20038;-88
2022/05/12 05:28:09;;;;;;;13.77;8.25;;;;;;;;;;5014138;28;20029;-85
2022/05/12 05:30:34;;;;;;;15.13;9.45;;;;;;;;;;5021206;28;20038;-87
2022/05/12 05:33:00;;;;;;;13.75;10.15;;;;;;;;;;5010640;28;20017;-86
2022/05/12 05:35:25;;;;;;;12.32;10.07;;;;;;;;;;5026384;28;20470;-88
2022/05/12 05:37:53;;;;;;;13.68;10.45;;;;;;;;;;5007209;28;20037;-86
2022/05/12 05:40:21;;;;;;;13.20;9.73;;;;;;;;;;5023594;28;20026;-86
2022/05/12 05:42:48;;;;;;;14.40;10.00;;;;;;;;;;5022869;28;20029;-87
2022/05/12 05:45:17;;;;;;;19.23;9.45;;;;;;;;;;5028194;28;20113;-86
2022/05/12 05:47:45;;;;;;;17.95;9.52;;;;;;;;;;5025233;28;20064;-86
2022/05/12 05:50:16;;;;;;;12.20;10.38;;;;;;;;;;5026633;28;20030;-86
2022/05/12 05:55:26;;;;;;;16.02;9.50;;;;;;;;;;5021658;28;20214;-86
2022/05/12 05:57:53;;;;;;;18.30;10.73;;;;;;;;;;5028765;28;20025;-86
2022/05/12 06:00:19;;;;;;;18.58;10.57;;;;;;;;;;5030306;28;20109;-84
2022/05/12 06:02:45;;;;;;;16.67;10.27;;;;;;;;;;5004926;28;20029;-87
2022/05/12 06:05:11;;;;;;;18.58;9.27;;;;;;;;;;5005953;28;20034;-84
2022/05/12 06:07:40;;;;;;;12.80;9.10;;;;;;;;;;5029996;28;20029;-85
2022/05/12 06:10:07;;;;;;;17.80;10.02;;;;;;;;;;5025177;28;20026;-85
2022/05/12 06:12:33;;;;;;;14.02;9.02;;;;;;;;;;5006797;28;20467;-88
2022/05/12 06:14:59;;;;;;;23.08;9.85;;;;;;;;;;5020919;28;20055;-90
2022/05/12 06:17:26;;;;;;;12.95;9.95;;;;;;;;;;5027310;28;20026;-88
2022/05/12 06:19:52;;;;;;;15.20;10.50;;;;;;;;;;5022749;28;20037;-85
2022/05/12 06:22:21;;;;;;;12.00;9.95;;;;;;;;;;5006543;28;20486;-85
2022/05/12 06:24:49;;;;;;;13.23;9.45;;;;;;;;;;5024174;28;20389;-85
2022/05/12 06:27:16;;;;;;;15.73;10.80;;;;;;;;;;5022910;28;20543;-84
2022/05/12 06:29:44;;;;;;;12.27;8.90;;;;;;;;;;5023144;28;20091;-82
2022/05/12 06:32:10;;;;;;;12.48;10.00;;;;;;;;;;5023389;28;20057;-83
2022/05/12 06:34:37;;;;;;;12.77;10.15;;;;;;;;;;5026634;28;20461;-84
2022/05/12 06:37:04;;;;;;;16.33;10.43;;;;;;;;;;5027743;28;20030;-85
2022/05/12 06:39:30;;;;;;;14.65;10.02;;;;;;;;;;5021054;28;20389;-85
2022/05/12 06:41:56;;;;;;;15.13;10.63;;;;;;;;;;5006455;28;20441;-82
2022/05/12 06:44:22;;;;;;;13.60;10.18;;;;;;;;;;5021708;28;20453;-84
2022/05/12 06:46:48;;;;;;;13.57;9.82;;;;;;;;;;5026557;28;20079;-83
2022/05/12 06:49:13;;;;;;;13.45;10.80;;;;;;;;;;5022015;28;20458;-83
2022/05/12 06:51:39;;;;;;;16.52;10.60;;;;;;;;;;5019192;28;20029;-82
2022/05/12 06:54:05;;;;;;;12.35;9.88;;;;;;;;;;5008910;28;20029;-83
2022/05/12 06:56:30;;;;;;;14.05;9.93;;;;;;;;;;5022946;28;20033;-82
2022/05/12 06:58:56;;;;;;;14.57;9.40;;;;;;;;;;5023244;28;20044;-85
2022/05/12 07:01:21;;;;;;;12.70;9.60;;;;;;;;;;5006594;28;20494;-83
2022/05/12 07:03:48;;;;;;;14.82;9.48;;;;;;;;;;5027764;28;20040;-85
2022/05/12 07:06:13;;;;;;;14.88;10.20;;;;;;;;;;5001400;28;20359;-83
2022/05/12 07:08:43;;;;;;;16.10;9.65;;;;;;;;;;5024096;28;20032;-85
2022/05/12 07:11:09;;;;;;;;;;;;;;;;;;5024639;28;20101;-84
2022/05/12 07:13:35;;;;;;;13.80;9.63;;;;;;;;;;5030094;28;19921;-84
2022/05/12 07:16:03;;;;;;;19.60;9.88;;;;;;;;;;5009928;28;20029;-84
2022/05/12 07:18:31;;;;;;;12.02;8.50;;;;;;;;;;5026433;28;20021;-83
2022/05/12 07:26:40;;;;;;;11.70;8.07;;;;;;;;;;5025262;28;20028;-84
2022/05/12 07:29:13;;;;;;;15.18;7.70;;;;;;;;;;5016515;28;20093;-81
2022/05/12 07:31:39;;;;;;;15.13;7.90;;;;;;;;;;5025052;28;20048;-84
2022/05/12 07:34:05;;;;;;;14.10;7.95;;;;;;;;;;5025540;28;20059;-83
2022/05/12 07:36:37;;;;;;;11.18;7.28;;;;;;;;;;5007823;28;20087;-86
2022/05/12 07:39:05;;;;;;;11.20;7.30;;;;;;;;;;5008241;28;20032;-88
2022/05/12 07:41:34;;;;;;;12.23;7.18;;;;;;;;;;5003290;28;20033;-86
2022/05/12 07:44:00;;;;;;;12.07;6.00;;;;;;;;;;5020500;28;20068;-87
2022/05/12 07:46:30;;;;;;;8.52;5.90;;;;;;;;;;5007315;28;20069;-86
2022/05/12 07:48:57;;;;;;;11.52;5.82;;;;;;;;;;5007962;28;20021;-88
2022/05/12 07:51:23;;;;;;;12.20;6.10;;;;;;;;;;5028327;28;20040;-88
2022/05/12 07:53:50;;;;;;;11.45;6.80;;;;;;;;;;5025555;28;20036;-87
2022/05/12 07:56:20;;;;;;;10.13;6.95;;;;;;;;;;5024029;28;20065;-88
2022/05/12 07:58:46;;;;;;;;;;;;;;;;;;5024994;28;20033;-87
2022/05/12 08:01:12;;;;;;;10.25;6.00;;;;;;;;;;5025132;28;20308;-88
2022/05/12 08:03:39;;;;;;;13.20;6.00;;;;;;;;;;5022123;28;20026;-87
2022/05/12 08:06:05;;;;;;;11.63;6.60;;;;;;;;;;5024791;28;20040;-87
2022/05/12 08:08:30;;;;;;;12.02;6.88;;;;;;;;;;5010468;28;20017;-86
2022/05/12 08:10:56;;;;;;;13.25;7.57;;;;;;;;;;5025700;28;20028;-86
2022/05/12 08:13:22;;;;;;;8.98;5.78;;;;;;;;;;5020202;28;20033;-89
2022/05/12 08:15:50;;;;;;;12.27;6.68;;;;;;;;;;5001784;28;20036;-87
2022/05/12 08:18:21;;;;;;;9.00;6.38;;;;;;;;;;5003969;28;20120;-87
2022/05/12 08:20:47;;;;;;;10.25;6.72;;;;;;;;;;5022581;28;20157;-87
2022/05/12 08:23:13;;;;;;;10.35;6.30;;;;;;;;;;5024361;28;20108;-88
2022/05/12 08:25:39;;;;;;;13.15;6.90;;;;;;;;;;5026231;28;20577;-87
2022/05/12 08:28:06;;;;;;;11.15;6.43;;;;;;;;;;5002862;28;20040;-88
2022/05/12 08:30:32;;;;;;;11.60;7.53;;;;;;;;;;5026247;28;20189;-88
2022/05/12 08:32:58;;;;;;;10.45;8.00;;;;;;;;;;5003451;28;20446;-86
2022/05/12 08:35:24;;;;;;;13.40;8.23;;;;;;;;;;5007947;28;20827;-87
2022/05/12 08:37:58;;;;;;;9.43;7.22;;;;;;;;;;5027230;28;20033;-86
2022/05/12 08:41:09;;;;;;;11.75;8.45;;;;;;;;;;5004732;28;20038;-87
2022/05/12 08:43:43;;;;;;;11.52;8.43;;;;;;;;;;5008374;28;20060;-89
2022/05/12 08:46:12;;;;;;;16.08;8.82;;;;;;;;;;5009126;28;20117;-88
2022/05/12 08:48:41;;;;;;;12.60;9.20;;;;;;;;;;5021746;28;20108;-88
2022/05/12 08:51:19;;;;;;;16.80;11.10;;;;;;;;;;5027413;28;20680;-87
2022/05/12 08:53:56;;;;;;;14.70;9.45;;;;;;;;;;5009116;28;20025;-88
2022/05/12 08:56:24;;;;;;;13.60;8.25;;;;;;;;;;5011480;28;20029;-87
2022/05/12 08:58:54;;;;;;;11.57;6.43;;;;;;;;;;5025094;28;20041;-87
2022/05/12 09:01:22;;;;;;;9.90;6.25;;;;;;;;;;5027771;28;20026;-87
2022/05/12 09:03:53;;;;;;;12.00;5.95;;;;;;;;;;5022744;28;20063;-87
2022/05/12 09:06:23;;;;;;;10.52;6.18;;;;;;;;;;5003951;28;20488;-88
2022/05/12 09:09:10;;;;;;;8.20;5.13;;;;;;;;;;5022432;28;20025;-87
2022/05/12 09:11:48;;;;;;;9.82;7.10;;;;;;;;;;5008561;28;20033;-85
2022/05/12 09:15:06;;;;;;;14.48;9.52;;;;;;;;;;5022599;28;20087;-85
2022/05/12 09:17:59;;;;;;;7.93;6.82;;;;;;;;;;5003344;28;20044;-87
2022/05/12 09:20:27;;;;;;;9.45;7.03;;;;;;;;;;5015202;28;20057;-87
2022/05/12 09:22:53;;;;;;;7.85;5.72;;;;;;;;;;5024141;28;20036;-87
2022/05/12 09:25:37;;;;;;;7.88;5.22;;;;;;;;;;5010289;28;20033;-87
2022/05/12 09:28:27;;;;;;;8.60;5.03;;;;;;;;;;5008945;28;20393;-86
2022/05/12 09:30:53;;;;;;;8.82;4.97;;;;;;;;;;5021956;28;20025;-87
2022/05/12 09:33:29;;;;;;;7.32;5.38;;;;;;;;;;5030422;28;20037;-85
2022/05/12 09:36:01;;;;;;;8.73;5.78;;;;;;;;;;5025984;28;20036;-90
2022/05/12 09:38:27;;;;;;;6.65;5.15;;;;;;;;;;5015546;28;20026;-93
2022/05/12 09:40:54;;;;;;;7.47;5.22;;;;;;;;;;5012720;28;20040;-89
2022/05/12 09:43:29;;;;;;;5.28;4.78;;;;;;;;;;5010733;28;20041;-92
2022/05/12 09:46:18;;;;;;;17.05;10.32;;;;;;;;;;5012609;28;20485;-91
2022/05/12 09:48:47;;;;;;;7.13;4.60;;;;;;;;;;5013060;28;20403;-87
2022/05/12 09:51:22;;;;;;;5.05;3.92;;;;;;;;;;5028639;28;20053;-92
2022/05/12 09:53:49;;;;;;;8.70;5.30;;;;;;;;;;5028974;28;20040;-91
2022/05/12 09:56:34;;;;;;;6.10;4.40;;;;;;;;;;5010165;28;20029;-89
2022/05/12 09:59:15;;;;;;;6.38;5.50;;;;;;;;;;5007807;28;20497;-92
2022/05/12 10:02:02;;;;;;;6.22;4.63;;;;;;;;;;5011771;28;20377;-92
2022/05/12 10:10:19;;;;;;;6.03;4.82;;;;;;;;;;5029145;28;20107;-90
2022/05/12 10:12:52;;;;;;;8.93;5.72;;;;;;;;;;5005433;28;20045;-91
2022/05/12 10:15:44;;;;;;;10.05;5.40;;;;;;;;;;5007241;28;20061;-90
2022/05/12 10:18:30;;;;;;;7.10;4.30;;;;;;;;;;5027057;28;20037;-89
2022/05/12 10:21:11;;;;;;;6.28;4.40;;;;;;;;;;5007954;28;20095;-89
2022/05/12 10:24:01;;;;;;;5.20;4.45;;;;;;;;;;5008104;28;20068;-88
2022/05/12 10:26:48;;;;;;;5.00;4.30;;;;;;;;;;5027247;28;20037;-88
2022/05/12 10:29:56;;;;;;;6.63;4.47;;;;;;;;;;5013545;28;20071;-91
2022/05/12 10:32:46;;;;;;;4.85;4.43;;;;;;;;;;4996985;28;20033;-88
2022/05/12 10:35:32;;;;;;;5.13;4.57;;;;;;;;;;5006009;28;20036;-88
2022/05/12 10:38:24;;;;;;;6.43;4.63;;;;;;;;;;5010482;28;20048;-91
2022/05/12 10:41:22;;;;;;;4.70;4.00;;;;;;;;;;5007774;28;20402;-89
2022/05/12 10:44:00;;;;;;;5.70;4.72;;;;;;;;;;5023750;28;20054;-88
2022/05/12 10:46:40;;;;;;;5.45;4.53;;;;;;;;;;5008705;28;20025;-89
2022/05/12 10:49:19;;;;;;;6.32;4.05;;;;;;;;;;5030936;28;20095;-90
2022/05/12 10:51:47;;;;;;;5.45;4.75;;;;;;;;;;5026898;28;20033;-90
2022/05/12 10:54:31;;;;;;;5.30;3.95;;;;;;;;;;5009868;28;20099;-86
2022/05/12 10:57:20;;;;;;;5.45;4.38;;;;;;;;;;5011856;28;20160;-87
2022/05/12 11:00:08;;;;;;;6.93;4.50;;;;;;;;;;5022874;28;20060;-89
2022/05/12 11:02:42;;;;;;;3.83;3.25;;;;;;;;;;5007066;28;20017;-87
2022/05/12 11:05:16;;;;;;;5.38;3.90;;;;;;;;;;5008959;28;20104;-87
2022/05/12 11:07:47;;;;;;;4.80;3.40;;;;;;;;;;5019475;28;20029;-89
2022/05/12 11:10:37;;;;;;;17.02;9.07;;;;;;;;;;5008172;28;20112;-89
2022/05/12 11:13:14;;;;;;;9.65;4.45;;;;;;;;;;5009352;28;20064;-87
2022/05/12 11:15:52;;;;;;;6.05;3.72;;;;;;;;;;5031182;28;20037;-91
2022/05/12 11:19:05;;;;;;;4.95;3.30;;;;;;;;;;5028080;28;20025;-87
2022/05/12 11:21:35;;;;;;;4.05;3.45;;;;;;;;;;4996249;28;20105;-88
2022/05/12 11:24:36;;;;;;;3.85;3.28;;;;;;;;;;5024711;28;20026;-87
2022/05/12 11:27:11;;;;;;;4.35;3.30;;;;;;;;;;5020552;28;20033;-86
2022/05/12 11:30:02;;;;;;;6.70;4.20;;;;;;;;;;5003910;28;20462;-89
2022/05/12 11:32:33;;;;;;;3.70;2.90;;;;;;;;;;5020247;28;20056;-87
2022/05/12 11:35:24;;;;;;;5.47;3.70;;;;;;;;;;5025605;28;20036;-86
2022/05/12 11:38:04;;;;;;;6.28;3.58;;;;;;;;;;5007594;28;20389;-90
2022/05/12 11:40:48;;;;;;;;;;;;;;;;;;5010723;28;20059;-85
2022/05/12 11:46:41;;;;;;;7.07;3.67;;;;;;;;;;5000706;28;20060;-90
2022/05/12 11:49:32;;;;;;;4.28;3.45;;;;;;;;;;4999805;28;20482;-90
2022/05/12 11:52:12;;;;;;;3.97;3.50;;;;;;;;;;5007515;28;20029;-89
2022/05/12 11:54:48;;;;;;;4.35;3.65;;;;;;;;;;5002935;28;20030;-88
2022/05/12 11:57:38;;;;;;;5.13;3.28;;;;;;;;;;5021263;28;20037;-88
2022/05/12 12:00:11;;;;;;;5.80;3.20;;;;;;;;;;5004774;28;20034;-89
2022/05/12 12:02:44;;;;;;;5.07;3.38;;;;;;;;;;5002653;28;20025;-90
2022/05/12 12:05:13;;;;;;;5.30;3.00;;;;;;;;;;4999755;28;20093;-88
2022/05/12 12:07:38;;;;;;;6.40;3.40;;;;;;;;;;5020473;28;20034;-89
2022/05/12 12:10:22;;;;;;;3.90;3.00;;;;;;;;;;5001309;28;20022;-89
2022/05/12 12:12:52;;;;;;;3.90;3.47;;;;;;;;;;5004602;28;20064;-88
2022/05/12 12:15:23;;;;;;;5.57;3.38;;;;;;;;;;4999962;28;20022;-88
2022/05/12 12:17:49;;;;;;;6.82;3.20;;;;;;;;;;5009656;28;20088;-91
2022/05/12 12:20:30;;;;;;;4.60;3.15;;;;;;;;;;5006917;28;20105;-90
2022/05/12 12:23:17;;;;;;;3.10;2.80;;;;;;;;;;5002630;28;20524;-91
2022/05/12 12:25:46;;;;;;;4.55;2.83;;;;;;;;;;5001933;28;20136;-90
2022/05/12 12:28:35;;;;;;;4.90;3.17;;;;;;;;;;5002645;28;20022;-90
2022/05/12 12:31:06;;;;;;;4.00;3.10;;;;;;;;;;5001698;28;20498;-90
2022/05/12 12:33:39;;;;;;;4.43;3.22;;;;;;;;;;5006447;28;20026;-89
2022/05/12 12:36:15;;;;;;;4.85;2.97;;;;;;;;;;5004606;28;20041;-90
2022/05/12 12:38:46;;;;;;;3.97;2.80;;;;;;;;;;4999161;28;20030;-89
2022/05/12 12:41:17;;;;;;;4.50;3.08;;;;;;;;;;5003082;28;20033;-89
2022/05/12 12:44:17;;;;;;;4.43;2.83;;;;;;;;;;5012060;28;20042;-89
2022/05/12 12:47:17;;;;;;;3.53;2.90;;;;;;;;;;5001048;28;20723;-89
2022/05/12 12:49:51;;;;;;;5.22;2.65;;;;;;;;;;5023702;28;20049;-91
2022/05/12 12:52:18;;;;;;;3.00;2.55;;;;;;;;;;5024372;28;20026;-90
2022/05/12 12:57:47;;;;;;;4.65;3.03;;;;;;;;;;5025533;28;21771;-90
2022/05/12 13:00:26;;;;;;;4.15;3.05;;;;;;;;;;5004055;28;20045;-89
2022/05/12 13:03:09;;;;;;;3.22;2.92;;;;;;;;;;5023107;28;20438;-89
2022/05/12 13:05:36;;;;;;;4.10;3.15;;;;;;;;;;5023510;28;20371;-90
2022/05/12 13:08:10;;;;;;;7.18;3.15;;;;;;;;;;5031177;28;20357;-91
2022/05/12 13:10:45;;;;;;;3.00;2.70;;;;;;;;;;5024071;28;20025;-92
2022/05/12 13:13:11;;;;;;;7.25;2.85;;;;;;;;;;5006811;28;20440;-89
2022/05/12 13:15:41;;;;;;;3.97;2.97;;;;;;;;;;5022100;28;20037;-90
2022/05/12 13:18:09;;;;;;;4.22;2.80;;;;;;;;;;5005961;28;20070;-90
2022/05/12 13:20:43;;;;;;;4.78;3.00;;;;;;;;;;5021707;28;20038;-91
2022/05/12 13:23:22;;;;;;;5.10;3.10;;;;;;;;;;5002557;28;20057;-89
2022/05/12 13:25:48;;;;;;;4.85;3.40;;;;;;;;;;5027828;28;20022;-88
2022/05/12 13:28:22;;;;;;;6.13;2.90;;;;;;;;;;5019655;28;20084;-90
2022/05/12 13:30:50;;;;;;;3.65;2.45;;;;;;;;;;5010624;28;20044;-89
2022/05/12 13:33:23;;;;;;;4.18;2.95;;;;;;;;;;5008759;28;20022;-89
2022/05/12 13:36:01;;;;;;;3.95;3.25;;;;;;;;;;5027810;28;20489;-90
2022/05/12 13:38:34;;;;;;;3.70;3.00;;;;;;;;;;5005248;28;20025;-91
2022/05/12 13:41:02;;;;;;;3.75;3.08;;;;;;;;;;5003056;28;20029;-88
2022/05/12 13:43:44;;;;;;;3.67;2.63;;;;;;;;;;5024026;28;20038;-88
2022/05/12 13:46:15;;;;;;;3.03;2.70;;;;;;;;;;5026584;28;20800;-89
2022/05/12 13:49:00;;;;;;;3.47;2.78;;;;;;;;;;5011521;28;20108;-87
2022/05/12 13:51:43;;;;;;;3.30;2.63;;;;;;;;;;5008538;28;20149;-88
2022/05/12 13:54:20;;;;;;;3.45;2.67;;;;;;;;;;5023659;28;20028;-91
2022/05/12 13:56:45;;;;;;;3.47;2.70;;;;;;;;;;5022173;28;20029;-80
2022/05/12 13:59:31;;;;;;;6.80;3.60;;;;;;;;;;5027269;28;20108;-80
2022/05/12 14:02:16;;;;;;;5.63;2.90;;;;;;;;;;5024646;28;20083;-81
2022/05/12 14:04:43;;;;;;;5.20;2.95;;;;;;;;;;5025858;28;20557;-83
2022/05/12 14:07:08;;;;;;;4.07;2.80;;;;;;;;;;5025941;28;20026;-80
2022/05/12 14:09:49;;;;;;;4.97;2.80;;;;;;;;;;5022021;28;20421;-80
2022/05/12 14:19:13;;;;;;;3.67;2.80;;;;;;;;;;5023405;28;20480;-80
2022/05/12 14:20:59;;;;;;;4.65;3.00;;;;;;;;;;5018894;28;20045;-82
2022/05/12 14:23:25;;;;;;;3.80;2.87;;;;;;;;;;5024273;28;20040;-81
2022/05/12 14:25:50;;;;;;;3.50;2.63;;;;;;;;;;5017359;28;20628;-81
2022/05/12 14:28:16;;;;;;;3.75;3.00;;;;;;;;;;5017905;28;20030;-82
2022/05/12 14:30:42;;;;;;;3.15;2.70;;;;;;;;;;5008380;28;20104;-81
2022/05/12 14:33:08;;;;;;;4.57;2.50;;;;;;;;;;5025376;28;20416;-81
2022/05/12 14:35:34;;;;;;;2.80;2.50;;;;;;;;;;5024411;28;20108;-82
2022/05/12 14:38:01;;;;;;;3.90;2.50;;;;;;;;;;5023025;28;20442;-81
2022/05/12 14:40:27;;;;;;;4.90;2.70;;;;;;;;;;5008409;28;20600;-81
2022/05/12 14:42:53;;;;;;;4.40;3.00;;;;;;;;;;4998888;28;20037;-81
2022/05/12 14:45:21;;;;;;;5.25;3.40;;;;;;;;;;5027397;28;20080;-81
2022/05/12 14:47:53;;;;;;;4.18;2.60;;;;;;;;;;5029476;28;20420;-80
2022/05/12 14:50:20;;;;;;;4.45;2.92;;;;;;;;;;5017712;28;20026;-81
2022/05/12 14:52:45;;;;;;;3.13;2.40;;;;;;;;;;5019904;28;20026;-80
2022/05/12 14:55:11;;;;;;;4.38;2.63;;;;;;;;;;5026751;28;20071;-80
2022/05/12 14:57:36;;;;;;;5.22;2.60;;;;;;;;;;5019348;28;20030;-84
2022/05/12 15:00:04;;;;;;;4.15;2.90;;;;;;;;;;5019979;28;20052;-81
2022/05/12 15:02:32;;;;;;;3.55;2.90;;;;;;;;;;5014780;28;20036;-80
2022/05/12 15:04:59;;;;;;;4.38;3.08;;;;;;;;;;5015801;28;20465;-81
2022/05/12 15:07:25;;;;;;;3.95;2.70;;;;;;;;;;5014038;28;20044;-83
2022/05/12 15:09:51;;;;;;;4.32;2.65;;;;;;;;;;5014682;28;20064;-80
2022/05/12 15:12:17;;;;;;;2.90;2.60;;;;;;;;;;5015663;28;20060;-80
2022/05/12 15:14:43;;;;;;;5.60;3.15;;;;;;;;;;5012505;28;20075;-82
2022/05/12 15:17:13;;;;;;;4.30;2.70;;;;;;;;;;5014985;28;20056;-82
2022/05/12 15:19:39;;;;;;;8.18;2.90;;;;;;;;;;5013645;28;20064;-82
2022/05/12 15:22:05;;;;;;;3.22;2.78;;;;;;;;;;5013868;28;20029;-82
2022/05/12 15:24:31;;;;;;;4.68;2.97;;;;;;;;;;5012405;28;20026;-81
2022/05/12 15:26:59;;;;;;;4.40;2.85;;;;;;;;;;5011886;28;20048;-80
2022/05/12 15:29:25;;;;;;;5.38;3.00;;;;;;;;;;5015644;28;20025;-81